createdAt,value
2018-07-14T00:01:44.581Z,64.81
2018-07-14T00:03:49.782Z,64.70
2018-07-14T00:05:54.648Z,64.70
2018-07-14T00:07:59.495Z,64.87
2018-07-14T00:10:04.426Z,65.24
2018-07-14T00:12:09.209Z,66.09
2018-07-14T00:14:13.993Z,65.32
2018-07-14T00:16:18.767Z,65.49
2018-07-14T00:18:23.545Z,64.86
2018-07-14T00:20:28.454Z,65.48
2018-07-14T00:22:33.237Z,66.11
2018-07-14T00:24:38.344Z,66.14
2018-07-14T00:26:43.198Z,65.97
2018-07-14T00:28:48.649Z,66.07
2018-07-14T00:30:53.492Z,66.63
2018-07-14T00:32:58.266Z,66.92
2018-07-14T00:35:03.318Z,66.92
2018-07-14T00:37:08.158Z,67.06
2018-07-14T00:39:12.986Z,67.27
2018-07-14T00:41:17.791Z,67.50
2018-07-14T00:43:22.628Z,67.00
2018-07-14T00:45:27.395Z,67.25
2018-07-14T00:47:32.214Z,67.95
2018-07-14T00:49:37.190Z,68.33
2018-07-14T00:51:42.241Z,67.92
2018-07-14T00:53:46.960Z,68.73
2018-07-14T00:55:51.848Z,69.40
2018-07-14T00:57:56.704Z,69.41
2018-07-14T01:00:01.356Z,69.70
2018-07-14T01:02:06.155Z,70.04
2018-07-14T01:04:10.861Z,69.19
2018-07-14T01:06:15.593Z,70.37
2018-07-14T01:08:20.376Z,70.72
2018-07-14T01:10:25.146Z,70.75
2018-07-14T01:12:29.992Z,70.17
2018-07-14T01:14:34.900Z,69.87
2018-07-14T01:16:39.781Z,70.34
2018-07-14T01:18:44.597Z,70.09
2018-07-14T01:20:49.341Z,70.37
2018-07-14T01:22:54.189Z,70.22
2018-07-14T01:24:58.915Z,71.10
2018-07-14T01:27:03.684Z,70.83
2018-07-14T01:29:08.490Z,70.99
2018-07-14T01:31:13.302Z,71.20
2018-07-14T01:33:18.136Z,71.83
2018-07-14T01:35:22.959Z,71.15
2018-07-14T01:37:27.750Z,71.83
2018-07-14T01:39:32.676Z,71.68
2018-07-14T01:41:37.561Z,71.64
2018-07-14T01:43:42.498Z,71.74
2018-07-14T01:45:47.294Z,72.15
2018-07-14T01:47:52.105Z,71.82
2018-07-14T01:49:56.974Z,72.47
2018-07-14T01:52:01.856Z,71.47
2018-07-14T01:54:06.831Z,72.33
2018-07-14T01:56:11.765Z,71.99
2018-07-14T01:58:16.758Z,72.08
2018-07-14T02:00:21.710Z,72.24
2018-07-14T02:02:26.522Z,72.83
2018-07-14T02:04:31.383Z,73.52
2018-07-14T02:06:36.418Z,73.36
2018-07-14T02:08:41.344Z,73.97
2018-07-14T02:10:46.259Z,73.91
2018-07-14T02:12:51.026Z,73.76
2018-07-14T02:14:55.860Z,74.76
2018-07-14T02:17:00.671Z,75.15
2018-07-14T02:19:05.474Z,74.95
2018-07-14T02:21:10.413Z,74.45
2018-07-14T02:23:15.129Z,75.59
2018-07-14T02:25:19.922Z,75.41
2018-07-14T02:27:24.644Z,76.43
2018-07-14T02:29:29.425Z,76.27
2018-07-14T02:31:34.213Z,76.98
2018-07-14T02:33:38.923Z,76.87
2018-07-14T02:35:43.726Z,76.76
2018-07-14T02:37:48.528Z,75.96
2018-07-14T02:39:53.284Z,76.57
2018-07-14T02:41:58.074Z,76.94
2018-07-14T02:44:04.524Z,76.87
2018-07-14T02:46:09.496Z,77.49
2018-07-14T02:48:14.235Z,76.99
2018-07-14T02:50:19.052Z,76.92
2018-07-14T02:52:23.797Z,77.11
2018-07-14T02:54:28.554Z,77.88
2018-07-14T02:56:33.455Z,77.30
2018-07-14T02:58:38.238Z,77.51
2018-07-14T03:00:43.055Z,77.45
2018-07-14T03:02:47.947Z,78.52
2018-07-14T03:04:52.684Z,78.93
2018-07-14T03:06:57.613Z,78.67
2018-07-14T03:09:02.535Z,78.37
2018-07-14T03:11:07.379Z,77.94
2018-07-14T03:13:12.187Z,77.55
2018-07-14T03:15:17.023Z,77.78
2018-07-14T03:17:21.859Z,77.66
2018-07-14T03:19:26.822Z,78.79
2018-07-14T03:21:31.704Z,78.57
2018-07-14T03:23:36.482Z,78.50
2018-07-14T03:25:41.304Z,78.56
2018-07-14T03:27:46.101Z,78.83
2018-07-14T03:29:50.815Z,79.66
2018-07-14T03:31:55.769Z,79.50
2018-07-14T03:34:00.769Z,79.68
2018-07-14T03:36:05.519Z,80.16
2018-07-14T03:38:10.560Z,80.40
2018-07-14T03:40:15.376Z,79.88
2018-07-14T03:42:20.351Z,79.20
2018-07-14T03:44:25.319Z,79.48
2018-07-14T03:46:30.172Z,79.86
2018-07-14T03:48:34.977Z,80.09
2018-07-14T03:50:39.955Z,80.03
2018-07-14T03:52:45.856Z,80.46
2018-07-14T03:54:50.652Z,80.49
2018-07-14T03:56:55.387Z,80.43
2018-07-14T03:59:00.173Z,79.88
2018-07-14T04:01:05.059Z,80.23
2018-07-14T04:03:09.831Z,80.60
2018-07-14T04:05:14.634Z,80.34
2018-07-14T04:07:19.428Z,80.59
2018-07-14T04:09:24.246Z,80.58
2018-07-14T04:11:29.098Z,80.76
2018-07-14T04:13:33.800Z,80.72
2018-07-14T04:15:38.666Z,81.12
2018-07-14T04:17:43.552Z,81.51
2018-07-14T04:19:48.294Z,81.40
2018-07-14T04:21:53.146Z,80.95
2018-07-14T04:23:57.976Z,81.50
2018-07-14T04:26:02.762Z,81.25
2018-07-14T04:28:07.656Z,81.63
2018-07-14T04:30:12.352Z,81.79
2018-07-14T04:32:17.057Z,81.37
2018-07-14T04:34:21.859Z,82.21
2018-07-14T04:36:26.661Z,81.41
2018-07-14T04:38:31.445Z,80.61
2018-07-14T04:40:36.339Z,81.13
2018-07-14T04:42:41.199Z,81.35
2018-07-14T04:44:46.177Z,80.47
2018-07-14T04:46:50.977Z,80.63
2018-07-14T04:48:55.702Z,80.69
2018-07-14T04:51:00.596Z,80.82
2018-07-14T04:53:05.483Z,80.41
2018-07-14T04:55:10.257Z,81.17
2018-07-14T04:57:15.113Z,81.22
2018-07-14T04:59:19.851Z,81.26
2018-07-14T05:01:24.612Z,81.29
2018-07-14T05:03:29.396Z,81.27
2018-07-14T05:05:34.398Z,80.69
2018-07-14T05:07:39.240Z,81.32
2018-07-14T05:09:44.221Z,81.13
2018-07-14T05:11:49.179Z,80.48
2018-07-14T05:13:54.100Z,80.38
2018-07-14T05:15:58.986Z,80.87
2018-07-14T05:18:03.801Z,81.07
2018-07-14T05:20:09.417Z,80.25
2018-07-14T05:22:14.246Z,80.71
2018-07-14T05:24:19.103Z,80.35
2018-07-14T05:26:24.002Z,81.08
2018-07-14T05:28:28.985Z,81.43
2018-07-14T05:30:34.107Z,80.99
2018-07-14T05:32:39.998Z,80.39
2018-07-14T05:34:44.794Z,80.26
2018-07-14T05:36:49.786Z,79.65
2018-07-14T05:39:01.373Z,80.05
2018-07-14T05:41:06.375Z,79.64
2018-07-14T05:43:11.237Z,79.10
2018-07-14T05:45:16.565Z,79.29
2018-07-14T05:47:21.472Z,78.34
2018-07-14T05:49:26.337Z,78.31
2018-07-14T05:51:31.680Z,78.19
2018-07-14T05:53:36.599Z,78.00
2018-07-14T05:55:41.275Z,77.09
2018-07-14T05:57:46.488Z,77.53
2018-07-14T05:59:51.945Z,77.54
2018-07-14T06:01:56.833Z,77.14
2018-07-14T06:04:01.629Z,77.23
2018-07-14T06:06:06.664Z,77.70
2018-07-14T06:08:11.693Z,77.04
2018-07-14T06:10:16.555Z,76.29
2018-07-14T06:12:21.803Z,76.62
2018-07-14T06:14:26.779Z,76.54
2018-07-14T06:16:31.863Z,75.94
2018-07-14T06:18:36.942Z,75.46
2018-07-14T06:20:42.044Z,74.85
2018-07-14T06:22:47.108Z,75.45
2018-07-14T06:24:52.089Z,75.05
2018-07-14T06:26:57.273Z,75.11
2018-07-14T06:29:02.265Z,74.27
2018-07-14T06:31:17.698Z,74.21
2018-07-14T06:33:22.619Z,73.87
2018-07-14T06:35:27.497Z,73.85
2018-07-14T06:37:32.317Z,74.31
2018-07-14T06:39:37.225Z,73.88
2018-07-14T06:41:42.416Z,74.01
2018-07-14T06:43:47.315Z,73.67
2018-07-14T06:45:52.184Z,73.38
2018-07-14T06:47:57.121Z,72.37
2018-07-14T06:50:01.991Z,71.99
2018-07-14T06:52:07.030Z,72.28
2018-07-14T06:54:12.493Z,71.87
2018-07-14T06:56:17.569Z,71.18
2018-07-14T06:58:22.427Z,71.70
2018-07-14T07:00:28.012Z,71.04
2018-07-14T07:02:32.951Z,71.74
2018-07-14T07:04:37.950Z,70.87
2018-07-14T07:06:42.618Z,70.21
2018-07-14T07:08:49.536Z,70.91
2018-07-14T07:10:54.693Z,69.89
2018-07-14T07:12:59.755Z,70.14
2018-07-14T07:15:05.490Z,69.37
2018-07-14T07:17:10.464Z,69.88
2018-07-14T07:19:15.299Z,69.65
2018-07-14T07:21:20.328Z,69.60
2018-07-14T07:23:25.404Z,69.33
2018-07-14T07:25:30.957Z,69.64
2018-07-14T07:27:36.195Z,68.91
2018-07-14T07:29:42.212Z,68.11
2018-07-14T07:31:47.210Z,68.75
2018-07-14T07:33:52.793Z,68.73
2018-07-14T07:35:57.884Z,68.62
2018-07-14T07:38:03.002Z,67.95
2018-07-14T07:40:08.195Z,67.95
2018-07-14T07:42:13.865Z,68.19
2018-07-14T07:44:19.130Z,67.54
2018-07-14T07:46:24.232Z,68.15
2018-07-14T07:48:29.320Z,68.18
2018-07-14T07:50:41.041Z,67.95
2018-07-14T07:52:47.035Z,66.92
2018-07-14T07:54:54.674Z,66.69
2018-07-14T07:56:59.587Z,66.96
2018-07-14T07:59:05.111Z,67.62
2018-07-14T08:01:10.114Z,66.04
2018-07-14T08:03:20.737Z,66.39
2018-07-14T08:05:25.709Z,66.13
2018-07-14T08:07:30.777Z,65.08
2018-07-14T08:09:37.223Z,65.51
2018-07-14T08:11:44.904Z,65.74
2018-07-14T08:13:49.914Z,66.01
2018-07-14T08:15:55.165Z,65.85
2018-07-14T08:18:00.181Z,66.93
2018-07-14T08:20:06.829Z,67.30
2018-07-14T08:22:11.768Z,66.61
2018-07-14T08:24:16.866Z,66.21
2018-07-14T08:26:21.742Z,66.03
2018-07-14T08:28:27.778Z,64.75
2018-07-14T08:30:33.661Z,64.95
2018-07-14T08:32:38.758Z,65.94
2018-07-14T08:34:43.845Z,64.96
2018-07-14T08:36:49.130Z,64.32
2018-07-14T08:41:00.452Z,63.08
2018-07-14T08:43:23.194Z,63.38
2018-07-14T08:45:28.270Z,60.96
2018-07-14T08:47:33.081Z,62.93
2018-07-14T08:49:37.968Z,61.95
2018-07-14T08:51:43.370Z,62.31
2018-07-14T08:53:48.852Z,62.78
2018-07-14T08:55:53.552Z,61.92
2018-07-14T08:57:58.341Z,62.03
2018-07-14T09:00:03.109Z,60.80
2018-07-14T09:02:08.402Z,60.20
2018-07-14T09:04:13.195Z,59.24
2018-07-14T09:06:18.218Z,60.11
2018-07-14T09:08:23.107Z,60.47
2018-07-14T09:10:28.006Z,59.33
2018-07-14T09:12:32.983Z,58.82
2018-07-14T09:14:38.135Z,59.29
2018-07-14T09:16:42.935Z,58.72
2018-07-14T09:18:48.772Z,59.90
2018-07-14T09:20:53.595Z,59.88
2018-07-14T09:22:58.475Z,58.98
2018-07-14T09:25:03.264Z,59.95
2018-07-14T09:27:08.972Z,59.79
2018-07-14T09:29:15.134Z,58.43
2018-07-14T09:31:20.291Z,57.38
2018-07-14T09:33:25.253Z,57.40
2018-07-14T09:35:30.527Z,58.41
2018-07-14T09:37:35.708Z,57.79
2018-07-14T09:39:40.685Z,57.87
2018-07-14T09:41:45.554Z,57.34
2018-07-14T09:43:50.494Z,58.53
2018-07-14T09:45:55.175Z,56.93
2018-07-14T09:47:59.551Z,56.97
2018-07-14T09:50:04.358Z,55.97
2018-07-14T09:52:09.158Z,56.62
2018-07-14T09:54:13.941Z,56.55
2018-07-14T09:56:18.794Z,56.16
2018-07-14T09:58:23.728Z,55.68
2018-07-14T10:00:34.879Z,55.31
2018-07-14T10:02:40.446Z,56.42
2018-07-14T10:04:46.063Z,55.52
2018-07-14T10:06:51.010Z,55.46
2018-07-14T10:08:55.957Z,54.03
2018-07-14T10:11:00.875Z,55.77
2018-07-14T10:13:05.874Z,55.54
2018-07-14T10:15:10.665Z,56.17
2018-07-14T10:17:15.437Z,54.96
2018-07-14T10:19:20.218Z,53.41
2018-07-14T10:21:25.290Z,54.90
2018-07-14T10:23:30.143Z,54.49
2018-07-14T10:25:35.054Z,54.03
2018-07-14T10:27:39.710Z,53.53
2018-07-14T10:29:44.592Z,53.13
2018-07-14T10:31:49.417Z,53.61
2018-07-14T10:33:54.327Z,54.62
2018-07-14T10:35:59.189Z,53.02
2018-07-14T10:38:04.137Z,51.29
2018-07-14T10:40:09.002Z,51.23
2018-07-14T10:42:13.966Z,51.60
2018-07-14T10:44:18.706Z,53.10
2018-07-14T10:46:23.545Z,53.01
2018-07-14T10:48:28.365Z,53.28
2018-07-14T10:50:33.201Z,51.83
2018-07-14T10:52:37.829Z,51.11
2018-07-14T10:55:22.478Z,51.42
2018-07-14T10:57:28.185Z,50.68
2018-07-14T10:59:33.064Z,50.73
2018-07-14T11:02:38.498Z,50.76
2018-07-14T11:04:43.688Z,50.77
2018-07-14T11:06:48.651Z,51.42
2018-07-14T11:08:54.917Z,51.33
2018-07-14T11:10:59.757Z,52.22
2018-07-14T11:13:04.673Z,51.77
2018-07-14T11:15:09.420Z,51.26
2018-07-14T11:17:14.304Z,51.86
2018-07-14T11:19:19.230Z,52.04
2018-07-14T11:21:24.040Z,51.73
2018-07-14T11:23:29.134Z,51.60
2018-07-14T11:25:33.893Z,51.02
2018-07-14T11:27:38.895Z,49.46
2018-07-14T11:29:43.940Z,49.82
2018-07-14T11:31:48.564Z,49.39
2018-07-14T11:33:52.920Z,48.67
2018-07-14T11:35:57.687Z,47.93
2018-07-14T11:38:02.499Z,47.34
2018-07-14T11:40:07.431Z,46.86
2018-07-14T11:42:12.343Z,46.14
2018-07-14T11:44:17.275Z,46.61
2018-07-14T11:46:22.117Z,46.61
2018-07-14T11:48:28.487Z,46.39
2018-07-14T11:50:35.546Z,45.72
2018-07-14T11:52:40.666Z,45.64
2018-07-14T11:54:45.769Z,46.01
2018-07-14T11:56:52.542Z,45.79
2018-07-14T11:58:57.563Z,45.29
2018-07-14T12:01:02.131Z,44.81
2018-07-14T12:03:06.930Z,45.19
2018-07-14T12:05:11.618Z,44.81
2018-07-14T12:07:16.399Z,46.02
2018-07-14T12:09:21.402Z,46.09
2018-07-14T12:11:26.302Z,45.81
2018-07-14T12:13:31.704Z,46.36
2018-07-14T12:15:36.506Z,44.79
2018-07-14T12:17:41.407Z,44.50
2018-07-14T12:19:46.381Z,44.52
2018-07-14T12:21:51.567Z,44.66
2018-07-14T12:23:57.095Z,42.95
2018-07-14T12:26:02.084Z,43.54
2018-07-14T12:28:07.314Z,43.41
2018-07-14T12:30:13.001Z,42.99
2018-07-14T12:32:17.783Z,40.60
2018-07-14T12:34:22.832Z,39.12
2018-07-14T12:36:27.755Z,39.63
2018-07-14T12:38:32.535Z,40.01
2018-07-14T12:40:37.450Z,39.75
2018-07-14T12:42:42.231Z,40.23
2018-07-14T12:44:47.084Z,40.53
2018-07-14T12:46:51.924Z,41.99
2018-07-14T12:48:56.690Z,42.07
2018-07-14T12:51:01.572Z,40.65
2018-07-14T12:53:06.522Z,40.26
2018-07-14T12:55:11.819Z,40.35
2018-07-14T12:57:16.631Z,40.34
2018-07-14T12:59:21.388Z,39.27
2018-07-14T13:01:26.180Z,39.64
2018-07-14T13:03:33.322Z,39.91
2018-07-14T13:05:38.257Z,39.08
2018-07-14T13:07:43.748Z,39.44
2018-07-14T13:09:48.769Z,38.91
2018-07-14T13:11:55.700Z,38.37
2018-07-14T13:14:00.921Z,38.34
2018-07-14T13:16:06.340Z,38.61
2018-07-14T13:18:11.235Z,37.98
2018-07-14T13:20:15.910Z,37.26
2018-07-14T13:22:21.330Z,36.97
2018-07-14T13:24:26.795Z,37.29
2018-07-14T13:26:32.313Z,37.72
2018-07-14T13:28:38.298Z,38.42
2018-07-14T13:30:43.470Z,37.73
2018-07-14T13:32:48.565Z,37.08
2018-07-14T13:34:54.207Z,37.89
2018-07-14T13:36:59.088Z,37.18
2018-07-14T13:39:04.797Z,37.07
2018-07-14T13:41:11.699Z,37.06
2018-07-14T13:43:26.239Z,37.33
2018-07-14T13:45:40.173Z,35.30
2018-07-14T13:47:46.078Z,36.69
2018-07-14T13:49:51.527Z,36.91
2018-07-14T13:51:56.483Z,37.35
2018-07-14T13:54:02.224Z,37.44
2018-07-14T13:56:07.676Z,38.28
2018-07-14T13:58:32.163Z,36.30
2018-07-14T14:00:37.156Z,35.36
2018-07-14T14:02:42.021Z,36.23
2018-07-14T14:04:46.495Z,35.87
2018-07-14T14:06:51.500Z,35.08
2018-07-14T14:08:56.663Z,34.16
2018-07-14T14:11:01.439Z,33.30
2018-07-14T14:13:06.412Z,33.91
2018-07-14T14:15:11.172Z,35.36
2018-07-14T14:17:16.271Z,36.11
2018-07-14T14:19:22.032Z,36.04
2018-07-14T14:21:26.872Z,34.06
2018-07-14T14:23:31.993Z,34.97
2018-07-14T14:25:37.580Z,34.29
2018-07-14T14:27:43.212Z,34.66
2018-07-14T14:29:48.106Z,34.69
2018-07-14T14:31:53.386Z,33.45
2018-07-14T14:33:58.834Z,32.94
2018-07-14T14:36:03.813Z,32.38
2018-07-14T14:38:08.758Z,33.17
2018-07-14T14:40:13.681Z,33.51
2018-07-14T14:42:18.746Z,33.89
2018-07-14T14:44:23.600Z,32.99
2018-07-14T14:46:28.236Z,33.52
2018-07-14T14:48:33.249Z,34.40
2018-07-14T14:50:38.281Z,34.65
2018-07-14T14:52:43.115Z,34.14
2018-07-14T14:54:49.473Z,34.59
2018-07-14T14:56:54.672Z,34.67
2018-07-14T14:58:59.512Z,34.46
2018-07-14T15:01:04.552Z,35.29
2018-07-14T15:03:09.542Z,32.59
2018-07-14T15:05:14.623Z,32.98
2018-07-14T15:07:19.982Z,32.84
2018-07-14T15:09:25.178Z,33.84
2018-07-14T15:11:32.669Z,32.88
2018-07-14T15:13:37.736Z,33.15
2018-07-14T15:15:42.677Z,33.14
2018-07-14T15:17:47.529Z,33.48
2018-07-14T15:19:52.561Z,34.59
2018-07-14T15:21:57.625Z,35.06
2018-07-14T15:24:02.558Z,34.42
2018-07-14T15:26:08.961Z,35.52
2018-07-14T15:28:13.845Z,35.03
2018-07-14T15:30:19.136Z,34.30
2018-07-14T15:32:24.774Z,34.46
2018-07-14T15:34:29.948Z,34.25
2018-07-14T15:36:36.305Z,33.68
2018-07-14T15:38:41.493Z,33.27
2018-07-14T15:40:46.841Z,33.95
2018-07-14T15:42:52.007Z,32.55
2018-07-14T15:44:57.195Z,32.89
2018-07-14T15:47:06.697Z,32.52
2018-07-14T15:49:11.593Z,31.91
2018-07-14T15:51:16.654Z,31.79
2018-07-14T15:53:23.440Z,31.19
2018-07-14T15:55:28.709Z,31.07
2018-07-14T15:57:34.140Z,30.61
2018-07-14T15:59:39.007Z,30.89
2018-07-14T16:01:45.539Z,31.58
2018-07-14T16:03:50.529Z,31.33
2018-07-14T16:05:58.025Z,31.42
2018-07-14T16:08:02.971Z,30.73
2018-07-14T16:10:07.920Z,31.59
2018-07-14T16:12:13.164Z,30.70
2018-07-14T16:14:18.015Z,30.05
2018-07-14T16:16:22.771Z,29.93
2018-07-14T16:18:28.696Z,31.01
2018-07-14T16:20:33.653Z,30.06
2018-07-14T16:22:40.725Z,29.79
2018-07-14T16:24:46.088Z,29.32
2018-07-14T16:26:51.093Z,28.55
2018-07-14T16:28:56.088Z,29.70
2018-07-14T16:31:00.985Z,29.46
2018-07-14T16:33:06.076Z,28.13
2018-07-14T16:35:10.899Z,28.91
2018-07-14T16:37:15.743Z,29.72
2018-07-14T16:39:20.536Z,28.66
2018-07-14T16:41:25.372Z,28.21
2018-07-14T16:43:30.277Z,28.31
2018-07-14T16:45:36.556Z,28.74
2018-07-14T16:47:41.332Z,28.23
2018-07-14T16:49:46.198Z,28.29
2018-07-14T16:51:51.273Z,29.28
2018-07-14T16:53:56.099Z,27.59
2018-07-14T16:56:01.124Z,27.78
2018-07-14T16:58:06.237Z,27.14
2018-07-14T17:00:11.141Z,26.46
2018-07-14T17:02:15.987Z,26.77
2018-07-14T17:04:20.919Z,25.44
2018-07-14T17:06:25.671Z,25.88
2018-07-14T17:08:30.670Z,25.89
2018-07-14T17:10:35.387Z,26.56
2018-07-14T17:12:40.166Z,26.32
2018-07-14T17:14:46.098Z,27.49
2018-07-14T17:16:50.898Z,26.83
2018-07-14T17:18:56.139Z,26.97
2018-07-14T17:21:01.744Z,27.67
2018-07-14T17:23:07.263Z,27.55
2018-07-14T17:25:12.059Z,27.86
2018-07-14T17:27:17.888Z,27.82
2018-07-14T17:29:22.690Z,27.55
2018-07-14T17:31:27.635Z,28.73
2018-07-14T17:33:32.461Z,29.64
2018-07-14T17:35:36.972Z,27.46
2018-07-14T17:37:41.710Z,28.30
2018-07-14T17:39:46.458Z,30.97
2018-07-14T17:41:51.504Z,29.69
2018-07-14T17:43:56.352Z,30.11
2018-07-14T17:46:01.141Z,30.37
2018-07-14T17:48:06.503Z,29.61
2018-07-14T17:50:11.290Z,31.03
2018-07-14T17:52:16.387Z,30.38
2018-07-14T17:54:23.375Z,30.66
2018-07-14T17:56:28.362Z,30.68
2018-07-14T17:58:33.654Z,30.64
2018-07-14T18:00:38.404Z,31.58
2018-07-14T18:02:43.464Z,31.41
2018-07-14T18:04:48.381Z,31.44
2018-07-14T18:06:53.257Z,30.76
2018-07-14T18:08:58.143Z,30.43
2018-07-14T18:11:03.041Z,30.96
2018-07-14T18:13:07.736Z,31.23
2018-07-14T18:15:12.512Z,30.99
2018-07-14T18:17:17.373Z,30.70
2018-07-14T18:19:22.282Z,31.08
2018-07-14T18:21:27.095Z,30.80
2018-07-14T18:23:34.497Z,30.99
2018-07-14T18:25:39.481Z,32.15
2018-07-14T18:27:44.273Z,32.57
2018-07-14T18:29:49.779Z,32.14
2018-07-14T18:31:54.564Z,33.27
2018-07-14T18:33:59.534Z,33.69
2018-07-14T18:36:05.006Z,34.22
2018-07-14T18:38:09.989Z,35.19
2018-07-14T18:40:14.432Z,34.82
2018-07-14T18:42:19.177Z,35.65
2018-07-14T18:44:25.450Z,35.77
2018-07-14T18:46:30.292Z,35.76
2018-07-14T18:48:35.053Z,36.49
2018-07-14T18:50:39.930Z,36.94
2018-07-14T18:52:44.924Z,36.25
2018-07-14T18:54:51.407Z,36.82
2018-07-14T18:56:56.333Z,36.13
2018-07-14T18:59:01.390Z,37.29
2018-07-14T19:01:06.435Z,36.38
2018-07-14T19:03:11.450Z,36.96
2018-07-14T19:05:16.250Z,37.32
2018-07-14T19:07:21.155Z,37.47
2018-07-14T19:09:27.131Z,36.87
2018-07-14T19:11:31.956Z,37.61
2018-07-14T19:13:36.887Z,37.52
2018-07-14T19:15:41.935Z,37.70
2018-07-14T19:17:46.743Z,37.54
2018-07-14T19:19:51.698Z,37.25
2018-07-14T19:21:56.530Z,37.85
2018-07-14T19:24:01.608Z,38.62
2018-07-14T19:26:06.892Z,38.87
2018-07-14T19:28:11.525Z,38.45
2018-07-14T19:30:16.356Z,38.98
2018-07-14T19:32:21.333Z,38.71
2018-07-14T19:34:26.353Z,38.61
2018-07-14T19:36:31.978Z,38.61
2018-07-14T19:40:51.504Z,39.19
2018-07-14T19:43:06.070Z,39.60
2018-07-14T19:47:28.660Z,40.36
2018-07-14T19:49:34.162Z,39.93
2018-07-14T19:51:39.698Z,40.24
2018-07-14T19:53:46.049Z,40.73
2018-07-14T19:55:52.038Z,40.70
2018-07-14T19:57:57.048Z,40.86
2018-07-14T20:00:02.255Z,40.79
2018-07-14T20:02:07.451Z,41.03
2018-07-14T20:04:13.580Z,41.01
2018-07-14T20:06:18.435Z,40.79
2018-07-14T20:08:23.645Z,41.64
2018-07-14T20:10:29.217Z,41.47
2018-07-14T20:12:34.191Z,41.52
2018-07-14T20:14:38.797Z,42.33
2018-07-14T20:16:43.878Z,42.86
2018-07-14T20:18:49.002Z,42.86
2018-07-14T20:20:54.180Z,42.94
2018-07-14T20:22:59.248Z,42.97
2018-07-14T20:25:04.218Z,43.22
2018-07-14T20:27:09.427Z,43.39
2018-07-14T20:29:15.845Z,42.91
2018-07-14T20:31:21.972Z,43.15
2018-07-14T20:33:28.046Z,43.00
2018-07-14T20:35:32.992Z,43.27
2018-07-14T20:37:38.189Z,44.18
2018-07-14T20:39:43.492Z,44.24
2018-07-14T20:41:48.417Z,44.31
2018-07-14T20:43:53.258Z,44.43
2018-07-14T20:45:58.284Z,44.79
2018-07-14T20:48:03.708Z,44.59
2018-07-14T20:50:08.769Z,44.54
2018-07-14T20:52:13.574Z,44.83
2018-07-14T20:54:18.995Z,44.77
2018-07-14T20:56:23.564Z,44.70
2018-07-14T20:58:28.402Z,44.85
2018-07-14T21:00:33.355Z,44.73
2018-07-14T21:02:38.406Z,44.96
2018-07-14T21:04:43.391Z,45.83
2018-07-14T21:06:48.998Z,45.27
2018-07-14T21:08:54.216Z,45.40
2018-07-14T21:10:59.101Z,46.49
2018-07-14T21:13:04.133Z,46.44
2018-07-14T21:15:09.098Z,46.18
2018-07-14T21:17:14.012Z,46.15
2018-07-14T21:19:19.649Z,46.99
2018-07-14T21:21:24.948Z,47.29
2018-07-14T21:23:30.071Z,46.97
2018-07-14T21:25:35.165Z,47.14
2018-07-14T21:27:40.734Z,47.73
2018-07-14T21:29:45.844Z,47.89
2018-07-14T21:31:50.744Z,47.93
2018-07-14T21:34:03.463Z,47.78
2018-07-14T21:36:08.465Z,48.04
2018-07-14T21:38:13.874Z,48.76
2018-07-14T21:40:19.063Z,48.29
2018-07-14T21:42:24.360Z,48.88
2018-07-14T21:44:29.380Z,49.27
2018-07-14T21:46:34.582Z,48.97
2018-07-14T21:48:39.409Z,49.39
2018-07-14T21:50:44.679Z,49.86
2018-07-14T21:52:51.124Z,50.10
2018-07-14T21:54:56.052Z,50.15
2018-07-14T21:57:00.955Z,50.39
2018-07-14T21:59:06.899Z,50.37
2018-07-14T22:01:17.160Z,50.26
2018-07-14T22:03:22.775Z,50.15
2018-07-14T22:05:29.202Z,50.99
2018-07-14T22:07:34.001Z,50.63
2018-07-14T22:09:39.183Z,51.62
2018-07-14T22:11:44.366Z,51.36
2018-07-14T22:13:49.491Z,51.89
2018-07-14T22:15:54.359Z,51.52
2018-07-14T22:17:59.148Z,51.79
2018-07-14T22:20:04.151Z,51.75
2018-07-14T22:22:09.349Z,51.71
2018-07-14T22:24:14.231Z,52.22
2018-07-14T22:26:19.168Z,51.63
2018-07-14T22:28:24.100Z,52.07
2018-07-14T22:30:28.958Z,52.68
2018-07-14T22:32:34.632Z,52.56
2018-07-14T22:34:39.546Z,52.84
2018-07-14T22:36:44.316Z,52.92
2018-07-14T22:38:49.205Z,53.37
2018-07-14T22:40:54.017Z,52.84
2018-07-14T22:42:59.308Z,52.97
2018-07-14T22:45:04.221Z,53.40
2018-07-14T22:47:09.762Z,53.68
2018-07-14T22:49:14.573Z,53.90
2018-07-14T22:51:20.376Z,53.78
2018-07-14T22:53:27.034Z,54.16
2018-07-14T22:55:33.054Z,53.48
2018-07-14T22:57:38.535Z,53.86
2018-07-14T22:59:43.856Z,53.43
2018-07-14T23:01:49.844Z,54.25
2018-07-14T23:03:55.006Z,53.69
2018-07-14T23:06:00.828Z,54.46
2018-07-14T23:08:05.956Z,54.27
2018-07-14T23:10:11.160Z,54.38
2018-07-14T23:12:15.957Z,54.64
2018-07-14T23:14:20.749Z,54.59
2018-07-14T23:16:25.550Z,54.36
2018-07-14T23:18:30.302Z,55.01
2018-07-14T23:20:35.240Z,54.40
2018-07-14T23:22:40.048Z,54.95
2018-07-14T23:24:44.800Z,55.23
2018-07-14T23:26:49.618Z,55.62
2018-07-14T23:28:54.434Z,55.56
2018-07-14T23:31:00.245Z,55.71
2018-07-14T23:33:05.021Z,55.30
2018-07-14T23:35:09.926Z,55.13
2018-07-14T23:37:14.645Z,55.87
2018-07-14T23:39:19.426Z,55.89
2018-07-14T23:41:24.235Z,56.01
2018-07-14T23:43:28.917Z,56.48
2018-07-14T23:45:33.688Z,56.42
2018-07-14T23:47:38.387Z,56.33
2018-07-14T23:49:43.163Z,56.86
2018-07-14T23:51:47.989Z,56.80
2018-07-14T23:53:52.679Z,57.36
2018-07-14T23:55:57.439Z,57.03
2018-07-14T23:58:02.192Z,57.60
